createdAt,value
2018-07-02T00:00:14.413Z,22.81
2018-07-02T00:00:46.053Z,22.81
2018-07-02T00:01:17.724Z,22.82
2018-07-02T00:01:49.316Z,22.81
2018-07-02T00:02:20.935Z,22.81
2018-07-02T00:02:52.574Z,22.82
2018-07-02T00:03:24.204Z,22.81
2018-07-02T00:03:55.815Z,22.81
2018-07-02T00:04:27.417Z,22.81
2018-07-02T00:04:59.029Z,22.81
2018-07-02T00:05:30.628Z,22.81
2018-07-02T00:06:02.244Z,22.81
2018-07-02T00:06:33.893Z,22.81
2018-07-02T00:07:05.538Z,22.81
2018-07-02T00:07:37.151Z,22.80
2018-07-02T00:08:08.751Z,22.80
2018-07-02T00:08:40.368Z,22.80
2018-07-02T00:09:12.001Z,22.80
2018-07-02T00:09:43.649Z,22.80
2018-07-02T00:10:15.289Z,22.80
2018-07-02T00:10:46.898Z,22.80
2018-07-02T00:11:18.573Z,22.79
2018-07-02T00:11:50.192Z,22.79
2018-07-02T00:12:21.799Z,22.79
2018-07-02T00:12:53.399Z,22.77
2018-07-02T00:13:25.010Z,22.79
2018-07-02T00:13:56.613Z,22.78
2018-07-02T00:14:28.241Z,22.79
2018-07-02T00:14:59.878Z,22.80
2018-07-02T00:15:31.490Z,22.80
2018-07-02T00:16:03.088Z,22.82
2018-07-02T00:16:34.757Z,22.82
2018-07-02T00:17:06.355Z,22.82
2018-07-02T00:17:37.982Z,22.83
2018-07-02T00:18:09.625Z,22.83
2018-07-02T00:18:41.238Z,22.82
2018-07-02T00:19:12.865Z,22.83
2018-07-02T00:19:44.473Z,22.85
2018-07-02T00:20:16.092Z,22.87
2018-07-02T00:20:47.726Z,22.91
2018-07-02T00:21:19.361Z,22.90
2018-07-02T00:21:51.025Z,22.89
2018-07-02T00:22:22.651Z,22.87
2018-07-02T00:22:54.251Z,22.83
2018-07-02T00:23:25.836Z,22.83
2018-07-02T00:23:57.429Z,22.81
2018-07-02T00:24:29.037Z,22.80
2018-07-02T00:25:00.655Z,22.78
2018-07-02T00:25:32.279Z,22.78
2018-07-02T00:26:03.880Z,22.78
2018-07-02T00:26:35.524Z,22.78
2018-07-02T00:27:07.181Z,22.79
2018-07-02T00:27:38.789Z,22.80
2018-07-02T00:28:10.394Z,22.80
2018-07-02T00:28:42.011Z,22.81
2018-07-02T00:29:13.612Z,22.81
2018-07-02T00:29:45.221Z,22.82
2018-07-02T00:30:16.815Z,22.82
2018-07-02T00:30:48.412Z,22.82
2018-07-02T00:31:20.024Z,22.81
2018-07-02T00:31:51.725Z,22.82
2018-07-02T00:32:23.264Z,22.82
2018-07-02T00:32:54.881Z,22.83
2018-07-02T00:33:26.499Z,22.82
2018-07-02T00:33:58.107Z,22.82
2018-07-02T00:34:29.700Z,22.82
2018-07-02T00:35:01.292Z,22.82
2018-07-02T00:35:32.897Z,22.83
2018-07-02T00:36:04.502Z,22.83
2018-07-02T00:36:36.102Z,22.83
2018-07-02T00:37:07.733Z,22.83
2018-07-02T00:37:39.361Z,22.82
2018-07-02T00:38:10.973Z,22.82
2018-07-02T00:38:42.572Z,22.82
2018-07-02T00:39:14.178Z,22.82
2018-07-02T00:39:45.787Z,22.83
2018-07-02T00:40:17.429Z,22.82
2018-07-02T00:40:49.039Z,22.82
2018-07-02T00:41:20.666Z,22.82
2018-07-02T00:41:52.261Z,22.82
2018-07-02T00:42:23.904Z,22.82
2018-07-02T00:42:55.539Z,22.83
2018-07-02T00:43:27.163Z,22.82
2018-07-02T00:43:58.765Z,22.82
2018-07-02T00:44:30.385Z,22.82
2018-07-02T00:45:01.998Z,22.81
2018-07-02T00:45:33.631Z,22.82
2018-07-02T00:46:05.265Z,22.82
2018-07-02T00:46:36.875Z,22.82
2018-07-02T00:47:08.529Z,22.82
2018-07-02T00:47:40.136Z,22.82
2018-07-02T00:48:11.757Z,22.81
2018-07-02T00:48:43.351Z,22.81
2018-07-02T00:49:14.950Z,22.82
2018-07-02T00:49:46.558Z,22.82
2018-07-02T00:50:18.190Z,22.83
2018-07-02T00:50:49.787Z,22.83
2018-07-02T00:51:21.380Z,22.82
2018-07-02T00:51:52.990Z,22.83
2018-07-02T00:52:24.639Z,22.83
2018-07-02T00:52:56.264Z,22.84
2018-07-02T00:53:27.893Z,22.84
2018-07-02T00:53:59.529Z,22.82
2018-07-02T00:54:31.158Z,22.83
2018-07-02T00:55:02.765Z,22.83
2018-07-02T00:55:34.392Z,22.83
2018-07-02T00:56:06.030Z,22.82
2018-07-02T00:56:37.642Z,22.83
2018-07-02T00:57:09.277Z,22.83
2018-07-02T00:57:40.885Z,22.83
2018-07-02T00:58:12.469Z,22.83
2018-07-02T00:58:44.097Z,22.83
2018-07-02T00:59:15.699Z,22.83
2018-07-02T00:59:47.337Z,22.83
2018-07-02T01:00:18.955Z,22.82
2018-07-02T01:00:50.593Z,22.82
2018-07-02T01:01:22.183Z,22.82
2018-07-02T01:01:53.780Z,22.81
2018-07-02T01:02:25.399Z,22.80
2018-07-02T01:02:57.026Z,22.80
2018-07-02T01:03:28.631Z,22.79
2018-07-02T01:04:00.233Z,22.78
2018-07-02T01:04:31.842Z,22.77
2018-07-02T01:05:03.449Z,22.76
2018-07-02T01:05:35.053Z,22.75
2018-07-02T01:06:06.661Z,22.74
2018-07-02T01:06:38.272Z,22.73
2018-07-02T01:07:09.972Z,22.72
2018-07-02T01:07:41.578Z,22.71
2018-07-02T01:08:13.185Z,22.70
2018-07-02T01:08:44.780Z,22.69
2018-07-02T01:09:16.393Z,22.70
2018-07-02T01:09:48.020Z,22.69
2018-07-02T01:10:19.652Z,22.69
2018-07-02T01:10:51.256Z,22.68
2018-07-02T01:11:22.871Z,22.67
2018-07-02T01:11:54.484Z,22.67
2018-07-02T01:12:26.104Z,22.65
2018-07-02T01:12:57.725Z,22.65
2018-07-02T01:13:29.341Z,22.65
2018-07-02T01:14:00.973Z,22.64
2018-07-02T01:14:32.596Z,22.65
2018-07-02T01:15:04.210Z,22.64
2018-07-02T01:15:35.800Z,22.66
2018-07-02T01:16:07.395Z,22.67
2018-07-02T01:16:39.025Z,22.68
2018-07-02T01:17:10.657Z,22.69
2018-07-02T01:17:42.250Z,22.70
2018-07-02T01:18:13.858Z,22.72
2018-07-02T01:18:45.484Z,22.73
2018-07-02T01:19:17.113Z,22.75
2018-07-02T01:19:48.740Z,22.76
2018-07-02T01:20:20.364Z,22.76
2018-07-02T01:20:51.992Z,22.77
2018-07-02T01:21:23.612Z,22.78
2018-07-02T01:21:55.238Z,22.78
2018-07-02T01:22:26.881Z,22.78
2018-07-02T01:22:58.499Z,22.79
2018-07-02T01:23:30.121Z,22.79
2018-07-02T01:24:01.744Z,22.78
2018-07-02T01:24:33.371Z,22.79
2018-07-02T01:25:04.981Z,22.79
2018-07-02T01:25:36.610Z,22.79
2018-07-02T01:26:08.249Z,22.79
2018-07-02T01:26:39.874Z,22.79
2018-07-02T01:27:11.499Z,22.78
2018-07-02T01:27:43.153Z,22.79
2018-07-02T01:28:14.780Z,22.78
2018-07-02T01:28:46.403Z,22.79
2018-07-02T01:29:18.035Z,22.78
2018-07-02T01:29:49.660Z,22.79
2018-07-02T01:30:21.258Z,22.78
2018-07-02T01:30:52.889Z,22.78
2018-07-02T01:31:24.510Z,22.78
2018-07-02T01:31:56.150Z,22.77
2018-07-02T01:32:27.771Z,22.78
2018-07-02T01:32:59.429Z,22.78
2018-07-02T01:33:31.079Z,22.78
2018-07-02T01:34:02.681Z,22.78
2018-07-02T01:34:34.293Z,22.77
2018-07-02T01:35:05.907Z,22.76
2018-07-02T01:35:37.521Z,22.76
2018-07-02T01:36:09.148Z,22.75
2018-07-02T01:36:40.775Z,22.74
2018-07-02T01:37:12.399Z,22.73
2018-07-02T01:37:44.020Z,22.73
2018-07-02T01:38:15.654Z,22.72
2018-07-02T01:38:47.257Z,22.71
2018-07-02T01:39:18.877Z,22.70
2018-07-02T01:39:50.517Z,22.70
2018-07-02T01:40:22.157Z,22.68
2018-07-02T01:40:53.781Z,22.69
2018-07-02T01:41:25.394Z,22.68
2018-07-02T01:41:57.012Z,22.66
2018-07-02T01:42:28.685Z,22.66
2018-07-02T01:43:00.315Z,22.65
2018-07-02T01:43:32.049Z,22.65
2018-07-02T01:44:03.666Z,22.65
2018-07-02T01:44:35.301Z,22.65
2018-07-02T01:45:06.925Z,22.64
2018-07-02T01:45:38.524Z,22.63
2018-07-02T01:46:10.124Z,22.63
2018-07-02T01:46:41.712Z,22.63
2018-07-02T01:47:13.333Z,22.64
2018-07-02T01:47:45.017Z,22.65
2018-07-02T01:48:16.629Z,22.66
2018-07-02T01:48:48.261Z,22.67
2018-07-02T01:49:19.896Z,22.67
2018-07-02T01:49:51.516Z,22.67
2018-07-02T01:50:23.119Z,22.68
2018-07-02T01:50:54.740Z,22.68
2018-07-02T01:51:26.369Z,22.67
2018-07-02T01:51:58.006Z,22.66
2018-07-02T01:52:29.608Z,22.66
2018-07-02T01:53:01.269Z,22.66
2018-07-02T01:53:32.895Z,22.65
2018-07-02T01:54:04.520Z,22.64
2018-07-02T01:54:36.123Z,22.64
2018-07-02T01:55:07.745Z,22.62
2018-07-02T01:55:39.361Z,22.63
2018-07-02T01:56:10.979Z,22.63
2018-07-02T01:56:42.597Z,22.63
2018-07-02T01:57:14.209Z,22.62
2018-07-02T01:57:45.821Z,22.62
2018-07-02T01:58:17.474Z,22.61
2018-07-02T01:58:49.081Z,22.60
2018-07-02T01:59:20.692Z,22.60
2018-07-02T01:59:52.291Z,22.60
2018-07-02T02:00:24.002Z,22.60
2018-07-02T02:00:55.619Z,22.59
2018-07-02T02:01:27.238Z,22.59
2018-07-02T02:01:58.830Z,22.60
2018-07-02T02:02:30.452Z,22.62
2018-07-02T02:03:02.100Z,22.61
2018-07-02T02:03:33.733Z,22.64
2018-07-02T02:04:05.335Z,22.66
2018-07-02T02:04:36.935Z,22.67
2018-07-02T02:05:08.531Z,22.68
2018-07-02T02:05:40.121Z,22.68
2018-07-02T02:06:11.704Z,22.69
2018-07-02T02:06:43.333Z,22.70
2018-07-02T02:07:14.942Z,22.70
2018-07-02T02:07:46.553Z,22.71
2018-07-02T02:08:18.163Z,22.71
2018-07-02T02:08:49.767Z,22.71
2018-07-02T02:09:21.401Z,22.71
2018-07-02T02:09:53.004Z,22.72
2018-07-02T02:10:24.664Z,22.71
2018-07-02T02:10:56.256Z,22.70
2018-07-02T02:11:27.836Z,22.70
2018-07-02T02:11:59.455Z,22.69
2018-07-02T02:12:31.065Z,22.68
2018-07-02T02:13:02.709Z,22.68
2018-07-02T02:13:34.336Z,22.67
2018-07-02T02:14:05.919Z,22.66
2018-07-02T02:14:37.546Z,22.65
2018-07-02T02:15:09.154Z,22.65
2018-07-02T02:15:40.745Z,22.65
2018-07-02T02:16:12.360Z,22.64
2018-07-02T02:16:43.973Z,22.64
2018-07-02T02:17:15.577Z,22.61
2018-07-02T02:17:47.189Z,22.62
2018-07-02T02:18:18.817Z,22.62
2018-07-02T02:18:50.448Z,22.61
2018-07-02T02:19:22.150Z,22.62
2018-07-02T02:19:53.777Z,22.62
2018-07-02T02:20:25.401Z,22.62
2018-07-02T02:20:57.018Z,22.62
2018-07-02T02:21:28.621Z,22.61
2018-07-02T02:22:00.249Z,22.61
2018-07-02T02:22:31.841Z,22.61
2018-07-02T02:23:03.466Z,22.60
2018-07-02T02:23:35.097Z,22.60
2018-07-02T02:24:06.705Z,22.61
2018-07-02T02:24:38.322Z,22.61
2018-07-02T02:25:09.940Z,22.61
2018-07-02T02:25:41.550Z,22.59
2018-07-02T02:26:13.166Z,22.60
2018-07-02T02:26:44.797Z,22.60
2018-07-02T02:27:16.389Z,22.60
2018-07-02T02:27:48.026Z,22.60
2018-07-02T02:28:19.660Z,22.59
2018-07-02T02:28:51.302Z,22.59
2018-07-02T02:29:22.925Z,22.59
2018-07-02T02:29:54.538Z,22.58
2018-07-02T02:30:26.132Z,22.58
2018-07-02T02:30:57.747Z,22.58
2018-07-02T02:31:29.372Z,22.58
2018-07-02T02:32:00.994Z,22.57
2018-07-02T02:32:32.609Z,22.57
2018-07-02T02:33:04.217Z,22.56
2018-07-02T02:33:35.875Z,22.57
2018-07-02T02:34:07.496Z,22.56
2018-07-02T02:34:39.092Z,22.56
2018-07-02T02:35:10.710Z,22.55
2018-07-02T02:35:42.322Z,22.55
2018-07-02T02:36:14.017Z,22.56
2018-07-02T02:36:45.604Z,22.55
2018-07-02T02:37:17.207Z,22.54
2018-07-02T02:37:48.838Z,22.55
2018-07-02T02:38:20.547Z,22.54
2018-07-02T02:38:52.123Z,22.53
2018-07-02T02:39:23.761Z,22.54
2018-07-02T02:39:55.364Z,22.53
2018-07-02T02:40:26.968Z,22.53
2018-07-02T02:40:58.586Z,22.58
2018-07-02T02:41:30.200Z,22.62
2018-07-02T02:42:01.842Z,22.64
2018-07-02T02:42:33.469Z,22.65
2018-07-02T02:43:05.098Z,22.65
2018-07-02T02:43:36.715Z,22.65
2018-07-02T02:44:08.333Z,22.64
2018-07-02T02:44:39.969Z,22.64
2018-07-02T02:45:11.597Z,22.63
2018-07-02T02:45:43.221Z,22.61
2018-07-02T02:46:14.812Z,22.60
2018-07-02T02:46:46.417Z,22.59
2018-07-02T02:47:18.004Z,22.58
2018-07-02T02:47:49.637Z,22.57
2018-07-02T02:48:21.241Z,22.59
2018-07-02T02:48:52.864Z,22.60
2018-07-02T02:49:24.492Z,22.63
2018-07-02T02:49:56.099Z,22.63
2018-07-02T02:50:27.692Z,22.56
2018-07-02T02:50:59.310Z,22.47
2018-07-02T02:51:30.940Z,22.36
2018-07-02T02:52:02.550Z,22.25
2018-07-02T02:52:34.168Z,22.14
2018-07-02T02:53:05.805Z,22.08
2018-07-02T02:53:37.434Z,21.72
2018-07-02T02:54:09.062Z,21.27
2018-07-02T02:54:40.678Z,20.96
2018-07-02T02:55:12.278Z,20.70
2018-07-02T02:55:43.891Z,20.16
2018-07-02T02:56:15.521Z,19.89
2018-07-02T02:56:47.137Z,19.89
2018-07-02T02:57:18.765Z,19.99
2018-07-02T02:57:50.415Z,20.14
2018-07-02T02:58:22.037Z,20.31
2018-07-02T02:58:53.688Z,20.47
2018-07-02T02:59:25.281Z,20.62
2018-07-02T02:59:56.901Z,20.75
2018-07-02T03:00:28.515Z,20.86
2018-07-02T03:01:00.145Z,20.97
2018-07-02T03:01:31.761Z,21.06
2018-07-02T03:02:03.393Z,21.14
2018-07-02T03:02:35.007Z,21.21
2018-07-02T03:03:06.609Z,21.28
2018-07-02T03:03:38.265Z,21.35
2018-07-02T03:04:09.881Z,21.39
2018-07-02T03:04:41.498Z,21.44
2018-07-02T03:05:13.136Z,21.48
2018-07-02T03:05:44.736Z,21.51
2018-07-02T03:06:16.328Z,21.55
2018-07-02T03:06:47.919Z,21.59
2018-07-02T03:07:19.549Z,21.61
2018-07-02T03:07:51.186Z,21.63
2018-07-02T03:08:22.811Z,21.66
2018-07-02T03:08:54.468Z,21.67
2018-07-02T03:09:26.075Z,21.69
2018-07-02T03:09:57.709Z,21.69
2018-07-02T03:10:29.334Z,21.71
2018-07-02T03:11:00.970Z,21.73
2018-07-02T03:11:32.590Z,21.73
2018-07-02T03:12:04.180Z,21.73
2018-07-02T03:12:35.781Z,21.74
2018-07-02T03:13:07.394Z,21.75
2018-07-02T03:13:39.035Z,21.76
2018-07-02T03:14:10.672Z,21.76
2018-07-02T03:14:42.278Z,21.77
2018-07-02T03:15:13.905Z,21.77
2018-07-02T03:15:45.533Z,21.77
2018-07-02T03:16:17.129Z,21.77
2018-07-02T03:16:48.757Z,21.78
2018-07-02T03:17:20.384Z,21.78
2018-07-02T03:17:52.021Z,21.78
2018-07-02T03:18:23.642Z,21.78
2018-07-02T03:18:55.266Z,21.78
2018-07-02T03:19:26.852Z,21.78
2018-07-02T03:19:58.457Z,21.78
2018-07-02T03:20:30.147Z,21.79
2018-07-02T03:21:01.691Z,21.79
2018-07-02T03:21:33.294Z,21.79
2018-07-02T03:22:04.911Z,21.79
2018-07-02T03:22:36.504Z,21.79
2018-07-02T03:23:08.112Z,21.79
2018-07-02T03:23:39.743Z,21.78
2018-07-02T03:24:11.391Z,21.79
2018-07-02T03:24:42.989Z,21.79
2018-07-02T03:25:14.601Z,21.79
2018-07-02T03:25:46.238Z,21.79
2018-07-02T03:26:17.854Z,21.78
2018-07-02T03:26:49.469Z,21.78
2018-07-02T03:27:21.060Z,21.78
2018-07-02T03:27:52.685Z,21.78
2018-07-02T03:28:24.301Z,21.78
2018-07-02T03:28:55.934Z,21.78
2018-07-02T03:29:27.562Z,21.78
2018-07-02T03:29:59.193Z,21.78
2018-07-02T03:30:30.785Z,21.78
2018-07-02T03:31:02.389Z,21.78
2018-07-02T03:31:34.084Z,21.77
2018-07-02T03:32:05.712Z,21.77
2018-07-02T03:32:37.317Z,21.76
2018-07-02T03:33:08.937Z,21.77
2018-07-02T03:33:40.560Z,21.76
2018-07-02T03:34:12.205Z,21.77
2018-07-02T03:34:43.818Z,21.77
2018-07-02T03:35:15.425Z,21.77
2018-07-02T03:35:47.017Z,21.77
2018-07-02T03:36:18.617Z,21.77
2018-07-02T03:36:50.223Z,21.76
2018-07-02T03:37:21.833Z,21.77
2018-07-02T03:37:53.441Z,21.76
2018-07-02T03:38:25.064Z,21.75
2018-07-02T03:38:56.714Z,21.76
2018-07-02T03:39:28.342Z,21.76
2018-07-02T03:39:59.956Z,21.76
2018-07-02T03:40:31.574Z,21.76
2018-07-02T03:41:03.199Z,21.76
2018-07-02T03:41:34.809Z,21.76
2018-07-02T03:42:06.413Z,21.76
2018-07-02T03:42:38.039Z,21.76
2018-07-02T03:43:09.659Z,21.76
2018-07-02T03:43:41.260Z,21.76
2018-07-02T03:44:12.891Z,21.75
2018-07-02T03:44:44.483Z,21.75
2018-07-02T03:45:16.085Z,21.75
2018-07-02T03:45:47.717Z,21.74
2018-07-02T03:46:19.321Z,21.75
2018-07-02T03:46:50.912Z,21.75
2018-07-02T03:47:22.517Z,21.75
2018-07-02T03:47:54.145Z,21.75
2018-07-02T03:48:25.747Z,21.75
2018-07-02T03:48:57.349Z,21.74
2018-07-02T03:49:29.001Z,21.74
2018-07-02T03:50:00.637Z,21.74
2018-07-02T03:50:32.256Z,21.73
2018-07-02T03:51:03.853Z,21.75
2018-07-02T03:51:35.485Z,21.74
2018-07-02T03:52:07.160Z,21.73
2018-07-02T03:52:38.721Z,21.74
2018-07-02T03:53:10.325Z,21.74
2018-07-02T03:53:41.918Z,21.74
2018-07-02T03:54:13.549Z,21.74
2018-07-02T03:54:45.165Z,21.74
2018-07-02T03:55:16.797Z,21.74
2018-07-02T03:55:48.434Z,21.75
2018-07-02T03:56:20.030Z,21.76
2018-07-02T03:56:51.621Z,21.76
2018-07-02T03:57:23.236Z,21.77
2018-07-02T03:57:54.839Z,21.79
2018-07-02T03:58:26.430Z,21.79
2018-07-02T03:58:58.016Z,21.80
2018-07-02T03:59:29.632Z,21.82
2018-07-02T04:00:01.248Z,21.83
2018-07-02T04:00:32.861Z,21.84
2018-07-02T04:01:04.465Z,21.86
2018-07-02T04:01:36.093Z,21.86
2018-07-02T04:02:07.688Z,21.88
2018-07-02T04:02:39.294Z,21.88
2018-07-02T04:03:10.915Z,21.87
2018-07-02T04:03:42.499Z,21.87
2018-07-02T04:04:14.125Z,21.88
2018-07-02T04:04:45.781Z,21.89
2018-07-02T04:05:17.395Z,21.90
2018-07-02T04:05:49.003Z,21.91
2018-07-02T04:06:20.623Z,21.92
2018-07-02T04:06:52.241Z,21.93
2018-07-02T04:07:23.839Z,21.94
2018-07-02T04:07:55.449Z,21.92
2018-07-02T04:08:27.073Z,21.94
2018-07-02T04:08:58.673Z,21.93
2018-07-02T04:09:30.329Z,21.91
2018-07-02T04:10:01.962Z,21.91
2018-07-02T04:10:33.596Z,21.91
2018-07-02T04:11:05.199Z,21.92
2018-07-02T04:11:36.820Z,21.93
2018-07-02T04:12:08.498Z,21.94
2018-07-02T04:12:40.083Z,21.96
2018-07-02T04:13:11.706Z,21.97
2018-07-02T04:13:43.341Z,21.99
2018-07-02T04:14:14.956Z,22.00
2018-07-02T04:14:46.589Z,22.01
2018-07-02T04:15:18.198Z,22.01
2018-07-02T04:15:49.802Z,22.03
2018-07-02T04:16:21.416Z,22.05
2018-07-02T04:16:53.022Z,22.05
2018-07-02T04:17:24.629Z,22.06
2018-07-02T04:17:56.253Z,22.08
2018-07-02T04:18:27.871Z,22.10
2018-07-02T04:18:59.464Z,22.11
2018-07-02T04:19:31.107Z,22.10
2018-07-02T04:20:02.746Z,22.13
2018-07-02T04:20:34.354Z,22.16
2018-07-02T04:21:05.981Z,22.18
2018-07-02T04:21:37.618Z,22.23
2018-07-02T04:22:09.244Z,22.27
2018-07-02T04:22:40.850Z,22.30
2018-07-02T04:23:12.536Z,22.38
2018-07-02T04:23:44.159Z,22.46
2018-07-02T04:24:15.792Z,22.57
2018-07-02T04:24:47.395Z,22.71
2018-07-02T04:25:19.030Z,22.90
2018-07-02T04:25:50.687Z,23.12
2018-07-02T04:26:22.250Z,23.40
2018-07-02T04:26:53.860Z,23.68
2018-07-02T04:27:25.469Z,23.93
2018-07-02T04:27:57.060Z,24.15
2018-07-02T04:28:28.686Z,24.31
2018-07-02T04:29:00.301Z,24.44
2018-07-02T04:29:31.965Z,24.55
2018-07-02T04:30:03.560Z,24.60
2018-07-02T04:30:35.181Z,24.64
2018-07-02T04:31:06.794Z,24.69
2018-07-02T04:31:38.425Z,24.73
2018-07-02T04:32:10.031Z,24.77
2018-07-02T04:32:41.657Z,24.83
2018-07-02T04:33:13.257Z,24.86
2018-07-02T04:33:44.896Z,24.91
2018-07-02T04:34:16.534Z,24.97
2018-07-02T04:34:48.197Z,25.06
2018-07-02T04:35:19.820Z,25.17
2018-07-02T04:35:51.461Z,25.33
2018-07-02T04:36:23.065Z,25.45
2018-07-02T04:36:54.697Z,25.58
2018-07-02T04:37:26.336Z,25.72
2018-07-02T04:37:57.957Z,25.90
2018-07-02T04:38:29.571Z,26.07
2018-07-02T04:39:01.183Z,26.25
2018-07-02T04:39:32.812Z,26.44
2018-07-02T04:40:04.449Z,26.61
2018-07-02T04:40:36.089Z,26.76
2018-07-02T04:41:07.705Z,26.87
2018-07-02T04:41:39.345Z,26.95
2018-07-02T04:42:10.972Z,27.03
2018-07-02T04:42:43.653Z,27.07
2018-07-02T04:43:15.283Z,27.10
2018-07-02T04:43:46.912Z,27.10
2018-07-02T04:44:18.549Z,27.05
2018-07-02T04:44:50.188Z,26.97
2018-07-02T04:45:21.821Z,26.85
2018-07-02T04:45:53.438Z,26.66
2018-07-02T04:46:25.042Z,26.56
2018-07-02T04:46:56.662Z,26.40
2018-07-02T04:47:28.298Z,26.30
2018-07-02T04:47:59.933Z,26.19
2018-07-02T04:48:31.545Z,26.11
2018-07-02T04:49:03.177Z,26.03
2018-07-02T04:49:34.813Z,25.98
2018-07-02T04:50:06.479Z,25.96
2018-07-02T04:50:38.093Z,26.00
2018-07-02T04:51:09.720Z,26.06
2018-07-02T04:51:41.353Z,26.17
2018-07-02T04:52:12.970Z,26.26
2018-07-02T04:52:44.572Z,26.35
2018-07-02T04:53:16.202Z,26.46
2018-07-02T04:53:47.837Z,26.60
2018-07-02T04:54:19.443Z,26.74
2018-07-02T04:54:51.081Z,26.86
2018-07-02T04:55:22.683Z,26.96
2018-07-02T04:55:54.301Z,27.07
2018-07-02T04:56:25.907Z,27.17
2018-07-02T04:56:57.537Z,27.26
2018-07-02T04:57:29.178Z,27.34
2018-07-02T04:58:00.770Z,27.42
2018-07-02T04:58:32.348Z,27.50
2018-07-02T04:59:03.973Z,27.57
2018-07-02T04:59:35.614Z,27.59
2018-07-02T05:00:07.255Z,27.61
2018-07-02T05:00:38.946Z,27.58
2018-07-02T05:01:10.545Z,27.54
2018-07-02T05:01:42.139Z,27.49
2018-07-02T05:02:13.730Z,27.40
2018-07-02T05:02:45.313Z,27.27
2018-07-02T05:03:16.893Z,27.13
2018-07-02T05:03:48.499Z,26.96
2018-07-02T05:04:20.110Z,26.80
2018-07-02T05:04:51.711Z,26.62
2018-07-02T05:05:23.329Z,26.43
2018-07-02T05:05:54.910Z,26.29
2018-07-02T05:06:26.498Z,26.14
2018-07-02T05:06:58.106Z,25.99
2018-07-02T05:07:29.704Z,25.85
2018-07-02T05:08:01.309Z,25.67
2018-07-02T05:08:32.904Z,25.47
2018-07-02T05:09:04.472Z,25.23
2018-07-02T05:09:36.082Z,24.99
2018-07-02T05:10:07.716Z,24.77
2018-07-02T05:10:39.321Z,24.58
2018-07-02T05:11:10.929Z,24.40
2018-07-02T05:11:42.504Z,24.25
2018-07-02T05:12:14.096Z,24.11
2018-07-02T05:12:45.677Z,23.97
2018-07-02T05:13:17.281Z,23.87
2018-07-02T05:13:48.856Z,23.76
2018-07-02T05:14:20.457Z,23.68
2018-07-02T05:14:52.028Z,23.58
2018-07-02T05:15:23.624Z,23.49
2018-07-02T05:15:55.211Z,23.41
2018-07-02T05:16:26.825Z,23.34
2018-07-02T05:16:58.408Z,23.27
2018-07-02T05:17:30.039Z,23.20
2018-07-02T05:18:01.714Z,23.11
2018-07-02T05:18:33.328Z,23.04
2018-07-02T05:19:04.914Z,22.98
2018-07-02T05:19:36.521Z,22.91
2018-07-02T05:20:08.160Z,22.86
2018-07-02T05:20:39.748Z,22.79
2018-07-02T05:21:11.348Z,22.74
2018-07-02T05:21:42.924Z,22.67
2018-07-02T05:22:14.492Z,22.64
2018-07-02T05:22:46.073Z,22.60
2018-07-02T05:23:17.657Z,22.56
2018-07-02T05:23:49.256Z,22.52
2018-07-02T05:24:20.837Z,22.47
2018-07-02T05:24:52.436Z,22.45
2018-07-02T05:25:24.073Z,22.42
2018-07-02T05:25:55.677Z,22.39
2018-07-02T05:26:27.289Z,22.36
2018-07-02T05:26:58.863Z,22.33
2018-07-02T05:27:30.441Z,22.31
2018-07-02T05:28:02.101Z,22.28
2018-07-02T05:28:33.676Z,22.26
2018-07-02T05:29:05.276Z,22.24
2018-07-02T05:29:36.882Z,22.22
2018-07-02T05:30:08.465Z,22.20
2018-07-02T05:30:40.093Z,22.19
2018-07-02T05:31:11.697Z,22.16
2018-07-02T05:31:43.306Z,22.13
2018-07-02T05:32:14.897Z,22.13
2018-07-02T05:32:46.488Z,22.11
2018-07-02T05:33:18.074Z,22.10
2018-07-02T05:33:49.662Z,22.08
2018-07-02T05:34:21.261Z,22.08
2018-07-02T05:34:52.855Z,22.06
2018-07-02T05:35:24.494Z,22.05
2018-07-02T05:35:56.086Z,22.03
2018-07-02T05:36:27.681Z,22.02
2018-07-02T05:36:59.289Z,22.01
2018-07-02T05:37:30.905Z,22.00
2018-07-02T05:38:02.509Z,22.00
2018-07-02T05:38:34.114Z,21.98
2018-07-02T05:39:05.684Z,21.98
2018-07-02T05:39:37.261Z,21.97
2018-07-02T05:40:08.866Z,21.96
2018-07-02T05:40:40.494Z,21.96
2018-07-02T05:41:12.091Z,21.95
2018-07-02T05:41:43.827Z,21.94
2018-07-02T05:42:15.289Z,21.93
2018-07-02T05:42:46.864Z,21.93
2018-07-02T05:43:18.473Z,21.92
2018-07-02T05:43:50.081Z,21.92
2018-07-02T05:44:21.685Z,21.91
2018-07-02T05:44:53.283Z,21.90
2018-07-02T05:45:24.918Z,21.90
2018-07-02T05:45:56.489Z,21.90
2018-07-02T05:46:28.056Z,21.89
2018-07-02T05:46:59.661Z,21.89
2018-07-02T05:47:31.266Z,21.88
2018-07-02T05:48:02.878Z,21.86
2018-07-02T05:48:34.522Z,21.87
2018-07-02T05:49:06.075Z,21.85
2018-07-02T05:49:37.677Z,21.87
2018-07-02T05:50:09.262Z,21.86
2018-07-02T05:50:40.880Z,21.85
2018-07-02T05:51:12.486Z,21.84
2018-07-02T05:51:44.056Z,21.84
2018-07-02T05:52:15.637Z,21.83
2018-07-02T05:52:47.227Z,21.83
2018-07-02T05:53:18.832Z,21.83
2018-07-02T05:53:50.438Z,21.82
2018-07-02T05:54:22.018Z,21.82
2018-07-02T05:54:53.645Z,21.82
2018-07-02T05:55:25.302Z,21.81
2018-07-02T05:55:56.909Z,21.81
2018-07-02T05:56:28.498Z,21.81
2018-07-02T05:57:00.092Z,21.80
2018-07-02T05:57:31.697Z,21.80
2018-07-02T05:58:03.512Z,21.80
2018-07-02T05:58:34.884Z,21.79
2018-07-02T05:59:06.452Z,21.80
2018-07-02T05:59:38.033Z,21.79
2018-07-02T06:00:09.644Z,21.78
2018-07-02T06:00:41.287Z,21.78
2018-07-02T06:01:12.858Z,21.78
2018-07-02T06:01:44.445Z,21.77
2018-07-02T06:02:16.021Z,21.77
2018-07-02T06:02:47.615Z,21.77
2018-07-02T06:03:19.197Z,21.77
2018-07-02T06:03:50.797Z,21.77
2018-07-02T06:04:22.382Z,21.75
2018-07-02T06:04:53.971Z,21.76
2018-07-02T06:05:25.659Z,21.76
2018-07-02T06:05:57.280Z,21.76
2018-07-02T06:06:28.883Z,21.76
2018-07-02T06:07:00.482Z,21.75
2018-07-02T06:07:32.071Z,21.75
2018-07-02T06:08:03.676Z,21.74
2018-07-02T06:08:35.271Z,21.75
2018-07-02T06:09:06.858Z,21.75
2018-07-02T06:09:38.465Z,21.75
2018-07-02T06:10:10.048Z,21.75
2018-07-02T06:10:41.687Z,21.75
2018-07-02T06:11:13.290Z,21.74
2018-07-02T06:11:44.877Z,21.74
2018-07-02T06:12:16.444Z,21.74
2018-07-02T06:12:48.065Z,21.74
2018-07-02T06:13:19.644Z,21.73
2018-07-02T06:13:51.221Z,21.73
2018-07-02T06:14:22.822Z,21.73
2018-07-02T06:14:54.420Z,21.73
2018-07-02T06:15:26.025Z,21.73
2018-07-02T06:15:57.647Z,21.73
2018-07-02T06:16:29.292Z,21.72
2018-07-02T06:17:00.856Z,21.72
2018-07-02T06:17:32.470Z,21.73
2018-07-02T06:18:04.050Z,21.72
2018-07-02T06:18:35.649Z,21.72
2018-07-02T06:19:07.224Z,21.72
2018-07-02T06:19:38.830Z,21.72
2018-07-02T06:20:10.428Z,21.72
2018-07-02T06:20:42.057Z,21.72
2018-07-02T06:21:13.662Z,21.73
2018-07-02T06:21:45.265Z,21.73
2018-07-02T06:22:16.873Z,21.73
2018-07-02T06:22:48.481Z,21.72
2018-07-02T06:23:20.084Z,21.73
2018-07-02T06:23:51.689Z,21.73
2018-07-02T06:24:23.297Z,21.73
2018-07-02T06:24:54.905Z,21.73
2018-07-02T06:25:26.510Z,21.75
2018-07-02T06:25:58.121Z,21.75
2018-07-02T06:26:29.701Z,21.75
2018-07-02T06:27:01.313Z,21.76
2018-07-02T06:27:32.893Z,21.76
2018-07-02T06:28:04.544Z,21.77
2018-07-02T06:28:36.149Z,21.78
2018-07-02T06:29:07.753Z,21.78
2018-07-02T06:29:39.329Z,21.79
2018-07-02T06:30:10.896Z,21.80
2018-07-02T06:30:42.487Z,21.80
2018-07-02T06:31:14.102Z,21.82
2018-07-02T06:31:45.682Z,21.84
2018-07-02T06:32:17.272Z,21.84
2018-07-02T06:32:48.881Z,21.84
2018-07-02T06:33:20.474Z,21.87
2018-07-02T06:33:52.062Z,21.89
2018-07-02T06:34:23.628Z,21.89
2018-07-02T06:34:55.209Z,21.90
2018-07-02T06:35:26.795Z,21.91
2018-07-02T06:35:58.435Z,21.92
2018-07-02T06:36:30.018Z,21.94
2018-07-02T06:37:01.600Z,21.95
2018-07-02T06:37:33.177Z,21.96
2018-07-02T06:38:04.768Z,21.97
2018-07-02T06:38:36.363Z,21.99
2018-07-02T06:39:07.952Z,22.00
2018-07-02T06:39:39.562Z,22.02
2018-07-02T06:40:11.201Z,22.03
2018-07-02T06:40:42.809Z,22.05
2018-07-02T06:41:14.446Z,22.06
2018-07-02T06:41:46.040Z,22.08
2018-07-02T06:42:17.622Z,22.11
2018-07-02T06:42:49.202Z,22.12
2018-07-02T06:43:20.771Z,22.14
2018-07-02T06:43:52.338Z,22.15
2018-07-02T06:44:23.925Z,22.16
2018-07-02T06:44:55.517Z,22.19
2018-07-02T06:45:27.130Z,22.19
2018-07-02T06:45:58.723Z,22.22
2018-07-02T06:46:30.344Z,22.22
2018-07-02T06:47:01.933Z,22.24